Time;durP1;ratioP1;P1;durP2;ratioP2;P2;SDS_P1;SDS_P2;PMS_P1;PMS_P2;Temp;Humidity;BMP_temperature;BMP_pressure;BME280_temperature;BME280_humidity;BME280_pressure;Samples;Min_cycle;Max_cycle;Signal;HPM_P1;HPM_P2
2024/04/10 00:00:25;;;;;;;1.83;1.00;;;10.40;99.90;;;;;;5445741;26;20282;-60
2024/04/10 00:02:56;;;;;;;4.23;1.17;;;10.30;99.90;;;;;;5438299;26;20218;-57
2024/04/10 00:05:22;;;;;;;5.13;1.50;;;10.30;99.90;;;;;;5439139;26;20266;-58
2024/04/10 00:07:53;;;;;;;2.57;1.50;;;10.30;99.90;;;;;;5459550;26;20262;-57
2024/04/10 00:10:19;;;;;;;3.60;1.43;;;10.30;99.90;;;;;;5418503;26;20258;-58
2024/04/10 00:12:47;;;;;;;2.83;1.67;;;10.30;99.90;;;;;;5459673;26;20238;-55
2024/04/10 00:15:13;;;;;;;2.00;1.20;;;10.30;99.90;;;;;;5453166;26;20554;-60
2024/04/10 00:17:42;;;;;;;3.47;1.33;;;10.30;99.90;;;;;;5438457;26;20232;-58
2024/04/10 00:20:10;;;;;;;3.63;1.80;;;10.30;99.90;;;;;;5448183;26;20590;-60
2024/04/10 00:22:39;;;;;;;4.07;1.77;;;10.30;99.90;;;;;;5455826;26;20269;-58
2024/04/10 00:25:05;;;;;;;5.07;1.37;;;10.30;99.90;;;;;;5402002;26;20290;-58
2024/04/10 00:27:33;;;;;;;4.17;1.30;;;10.30;99.90;;;;;;5443107;26;20278;-57
2024/04/10 00:29:59;;;;;;;4.73;1.47;;;10.30;99.90;;;;;;5456520;26;20235;-59
2024/04/10 00:32:28;;;;;;;4.77;1.63;;;10.30;99.90;;;;;;5443360;26;20277;-57
2024/04/10 00:34:54;;;;;;;3.47;1.50;;;10.30;99.90;;;;;;5459364;26;20286;-55
2024/04/10 00:37:25;;;;;;;2.93;1.53;;;10.30;99.90;;;;;;5460317;26;20279;-60
2024/04/10 00:39:51;;;;;;;2.73;1.33;;;10.30;99.90;;;;;;5414808;26;20299;-55
2024/04/10 00:42:21;;;;;;;6.53;1.40;;;10.30;99.90;;;;;;5453778;26;20236;-59
2024/04/10 00:44:52;;;;;;;2.40;1.60;;;10.30;99.90;;;;;;5450382;26;20365;-59
2024/04/10 00:47:21;;;;;;;2.67;1.27;;;10.30;99.90;;;;;;5449488;26;21441;-59
2024/04/10 00:49:47;;;;;;;4.03;1.57;;;10.30;99.90;;;;;;5460412;26;20251;-55
2024/04/10 00:52:16;;;;;;;2.07;1.33;;;10.30;99.90;;;;;;5458544;26;20278;-60
2024/04/10 00:54:45;;;;;;;4.60;1.57;;;10.30;99.90;;;;;;5459671;26;20721;-56
2024/04/10 00:57:14;;;;;;;3.97;1.83;;;10.30;99.90;;;;;;5407265;26;20247;-59
2024/04/10 00:59:40;;;;;;;5.50;1.70;;;10.30;99.90;;;;;;5448077;26;20281;-58
2024/04/10 01:02:10;;;;;;;3.00;1.60;;;10.20;99.90;;;;;;5452933;26;20385;-58
2024/04/10 01:04:35;;;;;;;2.53;1.80;;;10.20;99.90;;;;;;5462234;26;20314;-58
2024/04/10 01:07:09;;;;;;;4.50;2.30;;;10.20;99.90;;;;;;5451380;26;20235;-59
2024/04/10 01:09:36;;;;;;;4.27;1.50;;;10.20;99.90;;;;;;5455370;26;20270;-54
2024/04/10 01:12:08;;;;;;;2.97;2.00;;;10.20;99.90;;;;;;5396506;26;20247;-58
2024/04/10 01:14:37;;;;;;;2.80;1.87;;;10.20;99.90;;;;;;5443027;26;21141;-54
2024/04/10 01:17:03;;;;;;;5.90;1.90;;;10.20;99.90;;;;;;5452550;26;20338;-58
2024/04/10 01:19:31;;;;;;;2.20;2.00;;;10.20;99.90;;;;;;5450536;26;20316;-55
2024/04/10 01:21:58;;;;;;;6.97;1.97;;;10.20;99.90;;;;;;5447795;26;20258;-56
2024/04/10 01:24:29;;;;;;;4.23;2.00;;;10.20;99.90;;;;;;5448154;26;20231;-58
2024/04/10 01:26:55;;;;;;;2.60;1.83;;;10.10;99.90;;;;;;5406673;26;20243;-59
2024/04/10 01:29:23;;;;;;;3.30;1.53;;;10.10;99.90;;;;;;5439193;26;21195;-55
2024/04/10 01:31:49;;;;;;;3.90;2.07;;;10.10;99.90;;;;;;5461772;26;20239;-52
2024/04/10 01:34:18;;;;;;;4.27;1.80;;;10.10;99.90;;;;;;5452733;26;20926;-60
2024/04/10 01:36:43;;;;;;;9.33;2.40;;;10.10;99.90;;;;;;5463894;26;20314;-61
2024/04/10 01:39:12;;;;;;;4.20;2.17;;;10.10;99.90;;;;;;5448276;26;20268;-59
2024/04/10 01:41:40;;;;;;;5.67;2.57;;;10.10;99.90;;;;;;5451186;26;20417;-56
2024/04/10 01:44:09;;;;;;;5.13;2.00;;;10.10;99.90;;;;;;5400977;26;20294;-59
2024/04/10 01:46:35;;;;;;;3.10;1.83;;;10.10;99.90;;;;;;5455957;26;20231;-54
2024/04/10 01:49:04;;;;;;;3.17;1.87;;;10.20;99.90;;;;;;5445074;26;20583;-58
2024/04/10 01:51:30;;;;;;;6.17;2.53;;;10.20;99.90;;;;;;5459870;26;20222;-53
2024/04/10 01:53:58;;;;;;;5.13;2.00;;;10.10;99.90;;;;;;5450489;26;20280;-56
2024/04/10 01:56:24;;;;;;;5.33;2.60;;;10.20;99.90;;;;;;5446677;26;20231;-55
2024/04/10 01:58:55;;;;;;;3.43;1.80;;;10.20;99.90;;;;;;5414204;26;20862;-56
2024/04/10 02:01:22;;;;;;;4.83;2.30;;;10.20;99.90;;;;;;5453479;26;20232;-58
2024/04/10 02:03:50;;;;;;;4.77;2.40;;;10.20;99.90;;;;;;5460056;26;20269;-55
2024/04/10 02:06:16;;;;;;;4.97;2.03;;;10.20;99.90;;;;;;5448077;26;20282;-59
2024/04/10 02:08:45;;;;;;;3.40;1.87;;;10.20;99.90;;;;;;5447296;26;20585;-58
2024/04/10 02:11:23;;;;;;;4.70;2.60;;;10.20;99.90;;;;;;5445038;26;20339;-57
2024/04/10 02:13:51;;;;;;;3.80;1.93;;;10.20;99.90;;;;;;5419364;26;20310;-54
2024/04/10 02:16:22;;;;;;;4.53;2.13;;;10.20;99.90;;;;;;5448828;26;20584;-59
2024/04/10 02:18:50;;;;;;;5.10;1.93;;;10.20;99.90;;;;;;5463405;26;20231;-55
2024/04/10 02:21:17;;;;;;;6.13;2.53;;;10.20;99.90;;;;;;5447972;26;20949;-59
2024/04/10 02:23:45;;;;;;;5.40;2.33;;;10.20;99.90;;;;;;5447204;26;20223;-52
2024/04/10 02:26:12;;;;;;;4.80;1.93;;;10.10;99.90;;;;;;5454179;26;20338;-58
2024/04/10 02:28:41;;;;;;;7.90;2.57;;;10.00;99.90;;;;;;5416390;26;23906;-52
2024/04/10 02:31:07;;;;;;;4.97;2.47;;;10.00;99.90;;;;;;5447908;26;20271;-57
2024/04/10 02:33:38;;;;;;;2.90;1.90;;;9.90;99.90;;;;;;5451300;26;20615;-54
2024/04/10 02:36:05;;;;;;;2.83;1.80;;;9.80;99.90;;;;;;5441324;26;21071;-58
2024/04/10 02:38:36;;;;;;;3.40;1.53;;;9.70;99.90;;;;;;5439879;26;20244;-53
2024/04/10 02:41:03;;;;;;;3.00;1.53;;;9.70;99.90;;;;;;5460137;26;20227;-59
2024/04/10 02:43:32;;;;;;;3.80;1.23;;;9.60;99.90;;;;;;5400797;26;27479;-56
2024/04/10 02:45:59;;;;;;;4.63;1.40;;;9.60;99.90;;;;;;5461330;26;20231;-57
2024/04/10 02:48:28;;;;;;;4.53;1.27;;;9.50;99.90;;;;;;5444955;26;21052;-55
2024/04/10 02:50:57;;;;;;;2.27;1.30;;;9.50;99.90;;;;;;5438189;26;21362;-57
2024/04/10 02:53:26;;;;;;;4.23;1.43;;;9.50;99.90;;;;;;5442412;26;20239;-54
2024/04/10 02:55:54;;;;;;;3.07;1.10;;;9.50;99.90;;;;;;5461476;26;20370;-52
2024/04/10 02:58:23;;;;;;;4.93;1.27;;;9.50;99.90;;;;;;5414005;26;20235;-60
2024/04/10 03:00:50;;;;;;;2.17;0.90;;;9.40;99.90;;;;;;5436930;26;20278;-52
2024/04/10 03:03:19;;;;;;;3.97;1.37;;;9.50;99.90;;;;;;5440763;26;20255;-59
2024/04/10 03:05:47;;;;;;;2.90;1.10;;;9.40;99.90;;;;;;5444541;26;20238;-55
2024/04/10 03:08:18;;;;;;;2.03;0.97;;;9.40;99.90;;;;;;5453432;26;20630;-60
2024/04/10 03:10:44;;;;;;;2.27;1.33;;;9.40;99.90;;;;;;5455341;26;20234;-57
2024/04/10 03:13:13;;;;;;;4.03;0.90;;;9.50;99.90;;;;;;5454101;26;20282;-59
2024/04/10 03:15:39;;;;;;;3.53;1.13;;;9.50;99.90;;;;;;5408438;26;20238;-57
2024/04/10 03:18:09;;;;;;;2.00;0.83;;;9.40;99.90;;;;;;5433638;26;20333;-59
2024/04/10 03:20:35;;;;;;;5.83;1.70;;;9.40;99.90;;;;;;5453202;26;20360;-55
2024/04/10 03:23:04;;;;;;;2.77;1.23;;;9.40;99.90;;;;;;5452610;26;20231;-57
2024/04/10 03:25:33;;;;;;;3.47;0.77;;;9.40;99.90;;;;;;5446047;26;20334;-54
2024/04/10 03:28:02;;;;;;;4.63;0.93;;;9.40;99.90;;;;;;5452870;26;20243;-54
2024/04/10 03:30:28;;;;;;;2.57;1.03;;;9.30;99.90;;;;;;5400757;26;20289;-55
2024/04/10 03:32:57;;;;;;;2.50;0.83;;;9.40;99.90;;;;;;5444470;26;20235;-58
2024/04/10 03:35:24;;;;;;;2.57;0.70;;;9.40;99.90;;;;;;5448210;26;20274;-54
2024/04/10 03:37:53;;;;;;;5.47;1.50;;;9.30;99.90;;;;;;5446305;26;20270;-56
2024/04/10 03:40:19;;;;;;;2.73;0.93;;;9.30;99.90;;;;;;5452853;26;20726;-57
2024/04/10 03:42:50;;;;;;;2.87;0.80;;;9.30;99.90;;;;;;5447502;26;20235;-55
2024/04/10 03:45:18;;;;;;;2.63;1.20;;;9.30;99.90;;;;;;5446203;26;20239;-58
2024/04/10 03:47:47;;;;;;;2.27;0.90;;;9.30;99.90;;;;;;5409487;26;20251;-54
2024/04/10 03:50:15;;;;;;;4.80;1.17;;;9.20;99.90;;;;;;5441979;26;20235;-57
2024/04/10 03:52:41;;;;;;;3.07;1.00;;;9.20;99.90;;;;;;5449629;26;20730;-56
2024/04/10 03:55:10;;;;;;;1.63;0.77;;;9.20;99.90;;;;;;5450191;26;20235;-58
2024/04/10 03:57:37;;;;;;;1.33;1.00;;;9.20;99.90;;;;;;5452775;26;21200;-57
2024/04/10 04:00:10;;;;;;;4.47;0.73;;;9.10;99.90;;;;;;5446913;26;20227;-58
2024/04/10 04:02:39;;;;;;;2.83;1.10;;;9.10;99.90;;;;;;5400678;26;20542;-55
2024/04/10 04:05:09;;;;;;;3.33;0.70;;;9.20;99.90;;;;;;5447794;26;21834;-59
2024/04/10 04:07:34;;;;;;;2.80;1.03;;;9.20;99.90;;;;;;5449363;26;20247;-52
2024/04/10 04:10:03;;;;;;;3.20;0.80;;;9.20;99.90;;;;;;5456557;26;20359;-55
2024/04/10 04:12:29;;;;;;;4.27;0.67;;;9.20;99.90;;;;;;5440585;26;20333;-57
2024/04/10 04:14:57;;;;;;;1.77;0.70;;;9.20;99.90;;;;;;5449214;26;20238;-50
2024/04/10 04:17:26;;;;;;;5.40;0.97;;;9.20;99.90;;;;;;5392569;26;20293;-55
2024/04/10 04:19:54;;;;;;;1.73;0.73;;;9.20;99.90;;;;;;5450678;26;20231;-55
2024/04/10 04:22:21;;;;;;;5.50;1.57;;;9.20;99.90;;;;;;5427479;26;20286;-57
2024/04/10 04:24:49;;;;;;;4.83;1.13;;;9.20;99.90;;;;;;5453579;26;20230;-57
2024/04/10 04:27:16;;;;;;;3.77;0.70;;;9.20;99.90;;;;;;5432930;26;20348;-57
2024/04/10 04:29:48;;;;;;;3.57;0.60;;;9.20;99.90;;;;;;5424222;26;20273;-54
2024/04/10 04:32:14;;;;;;;2.17;0.80;;;9.20;99.90;;;;;;5409208;26;20665;-57
2024/04/10 04:34:45;;;;;;;3.47;1.40;;;9.30;99.90;;;;;;5439796;26;21238;-51
2024/04/10 04:37:12;;;;;;;2.33;1.17;;;9.20;99.90;;;;;;5425382;26;20582;-54
2024/04/10 04:39:40;;;;;;;5.17;1.07;;;9.20;99.90;;;;;;5431636;26;20283;-55
2024/04/10 04:42:06;;;;;;;4.37;0.80;;;9.20;99.90;;;;;;5420345;26;21151;-54
2024/04/10 04:44:34;;;;;;;5.90;0.80;;;9.30;99.90;;;;;;5420101;26;20250;-53
2024/04/10 04:47:00;;;;;;;3.97;1.00;;;9.30;99.90;;;;;;5404944;26;21800;-56
2024/04/10 04:49:29;;;;;;;4.37;0.90;;;9.30;99.90;;;;;;5452947;26;20235;-52
2024/04/10 04:51:58;;;;;;;5.83;0.80;;;9.20;99.90;;;;;;5432205;26;20270;-59
2024/04/10 04:54:27;;;;;;;6.17;1.20;;;9.30;99.90;;;;;;5424584;26;21166;-56
2024/04/10 04:56:53;;;;;;;5.60;0.93;;;9.20;99.90;;;;;;5429875;26;20232;-60
2024/04/10 04:59:21;;;;;;;3.07;1.10;;;9.20;99.90;;;;;;5451146;26;20776;-53
2024/04/10 05:01:47;;;;;;;1.93;0.90;;;9.20;99.90;;;;;;5453145;26;20271;-59
2024/04/10 05:07:04;;;;;;;4.83;1.40;;;9.30;99.90;;;;;;5445539;26;20255;-55
2024/04/10 05:09:31;;;;;;;6.40;1.07;;;9.30;99.90;;;;;;5430143;26;21840;-54
2024/04/10 05:11:59;;;;;;;3.63;1.40;;;9.20;99.90;;;;;;5433732;26;20227;-53
2024/04/10 05:14:25;;;;;;;3.37;1.20;;;9.20;99.90;;;;;;5447726;26;20227;-54
2024/04/10 05:16:54;;;;;;;4.77;1.23;;;9.20;99.90;;;;;;5464670;26;20283;-57
2024/04/10 05:19:19;;;;;;;8.13;1.33;;;9.10;99.90;;;;;;5411887;26;20590;-56
2024/04/10 05:21:48;;;;;;;4.23;0.80;;;9.10;99.90;;;;;;5418424;26;20232;-57
2024/04/10 05:24:16;;;;;;;5.03;1.50;;;9.10;99.90;;;;;;5418362;26;20243;-56
2024/04/10 05:26:45;;;;;;;5.40;1.27;;;9.10;99.90;;;;;;5426059;26;21795;-61
2024/04/10 05:29:11;;;;;;;5.17;0.90;;;9.10;99.90;;;;;;5429322;26;20251;-59
2024/04/10 05:31:39;;;;;;;5.07;1.20;;;9.00;99.90;;;;;;5439873;26;20671;-60
2024/04/10 05:34:05;;;;;;;5.90;1.57;;;9.00;99.90;;;;;;5424386;26;20311;-59
2024/04/10 05:36:34;;;;;;;9.13;1.60;;;9.10;99.90;;;;;;5395310;26;20282;-52
2024/04/10 05:39:00;;;;;;;5.97;1.10;;;9.10;99.90;;;;;;5435852;26;20290;-56
2024/04/10 05:41:31;;;;;;;5.47;1.17;;;9.10;99.90;;;;;;5425118;26;20275;-58
2024/04/10 05:43:57;;;;;;;5.10;0.87;;;9.10;99.90;;;;;;5416861;26;20286;-54
2024/04/10 05:46:26;;;;;;;5.33;1.20;;;9.10;99.90;;;;;;5438170;26;20234;-54
2024/04/10 05:48:52;;;;;;;5.53;1.30;;;9.10;99.90;;;;;;5442870;26;21131;-60
2024/04/10 05:51:20;;;;;;;7.97;1.37;;;9.10;99.90;;;;;;5407379;26;20240;-56
2024/04/10 05:53:47;;;;;;;8.60;1.20;;;9.00;99.90;;;;;;5442652;26;20302;-56
2024/04/10 05:56:16;;;;;;;4.37;1.30;;;9.00;99.90;;;;;;5440061;26;20339;-54
2024/04/10 05:58:44;;;;;;;6.40;1.60;;;9.00;99.90;;;;;;5450813;26;20343;-60
2024/04/10 06:01:13;;;;;;;6.80;1.53;;;9.00;99.90;;;;;;5417604;26;20234;-51
2024/04/10 06:03:39;;;;;;;8.50;1.20;;;9.10;99.90;;;;;;5432098;26;20230;-57
2024/04/10 06:06:12;;;;;;;3.63;0.87;;;9.10;99.90;;;;;;5397493;26;21944;-59
2024/04/10 06:08:38;;;;;;;6.43;1.40;;;9.10;99.90;;;;;;5458369;26;20235;-58
2024/04/10 06:11:07;;;;;;;6.07;1.03;;;9.20;99.90;;;;;;5439975;26;20239;-57
2024/04/10 06:13:32;;;;;;;6.10;1.10;;;9.20;99.90;;;;;;5452098;26;20271;-56
2024/04/10 06:16:04;;;;;;;4.03;0.87;;;9.30;99.90;;;;;;5421287;26;20238;-52
2024/04/10 06:18:31;;;;;;;10.10;1.70;;;9.30;99.90;;;;;;5444417;26;20822;-55
2024/04/10 06:21:00;;;;;;;4.90;1.50;;;9.40;99.90;;;;;;5395494;26;22188;-56
2024/04/10 06:23:27;;;;;;;3.70;1.20;;;9.40;99.90;;;;;;5452661;26;20232;-58
2024/04/10 06:25:56;;;;;;;4.87;1.10;;;9.40;99.90;;;;;;5430953;26;20287;-57
2024/04/10 06:28:21;;;;;;;5.00;1.10;;;9.40;99.90;;;;;;5446025;26;20232;-56
2024/04/10 06:30:58;;;;;;;7.70;1.30;;;9.20;99.90;;;;;;5423138;26;20285;-59
2024/04/10 06:33:26;;;;;;;6.53;1.40;;;9.10;99.90;;;;;;5430279;26;20694;-58
2024/04/10 06:35:55;;;;;;;7.77;1.20;;;9.00;99.90;;;;;;5433873;26;20243;-56
2024/04/10 06:38:21;;;;;;;10.27;1.73;;;9.00;99.90;;;;;;5412363;26;20290;-58
2024/04/10 06:40:55;;;;;;;6.43;1.63;;;9.00;99.90;;;;;;5456303;26;20235;-56
2024/04/10 06:43:21;;;;;;;7.27;1.33;;;9.00;99.90;;;;;;5443630;26;20582;-53
2024/04/10 06:45:57;;;;;;;7.60;1.37;;;9.00;99.90;;;;;;5418454;26;20234;-58
2024/04/10 06:48:26;;;;;;;9.50;2.20;;;9.00;99.90;;;;;;5410119;26;20274;-56
2024/04/10 06:50:57;;;;;;;10.43;1.33;;;9.00;99.90;;;;;;5457994;26;20293;-60
2024/04/10 06:53:23;;;;;;;6.83;1.70;;;8.90;99.90;;;;;;5387854;26;20250;-57
2024/04/10 06:55:55;;;;;;;5.50;1.80;;;8.90;99.90;;;;;;5448599;26;20278;-59
2024/04/10 06:58:22;;;;;;;4.67;1.10;;;8.90;99.90;;;;;;5422412;26;20709;-51
2024/04/10 07:00:58;;;;;;;7.47;1.37;;;8.90;99.90;;;;;;5441963;26;20946;-58
2024/04/10 07:03:27;;;;;;;7.50;1.40;;;8.90;99.90;;;;;;5420127;26;20236;-57
2024/04/10 07:06:04;;;;;;;4.27;1.23;;;9.00;99.90;;;;;;5451666;26;20230;-58
2024/04/10 07:08:30;;;;;;;6.30;1.50;;;9.00;99.90;;;;;;5395621;26;20243;-57
2024/04/10 07:10:59;;;;;;;9.57;1.47;;;9.10;99.90;;;;;;5453010;26;20289;-59
2024/04/10 07:13:25;;;;;;;7.60;1.20;;;9.20;99.90;;;;;;5428213;26;20239;-58
2024/04/10 07:16:04;;;;;;;8.33;1.50;;;9.20;99.90;;;;;;5452226;26;20269;-57
2024/04/10 07:18:35;;;;;;;3.83;1.17;;;9.30;99.90;;;;;;5424396;26;20228;-57
2024/04/10 07:21:03;;;;;;;4.23;1.23;;;9.40;99.90;;;;;;5456164;26;20223;-59
2024/04/10 07:23:32;;;;;;;5.33;1.77;;;9.40;99.90;;;;;;5402337;26;20625;-59
2024/04/10 07:26:12;;;;;;;9.00;1.60;;;9.40;99.90;;;;;;5442620;26;20239;-58
2024/04/10 07:28:43;;;;;;;6.63;1.40;;;9.40;99.90;;;;;;5427148;26;21060;-58
2024/04/10 07:31:10;;;;;;;7.47;1.20;;;9.40;99.90;;;;;;5460907;26;20232;-59
2024/04/10 07:33:41;;;;;;;7.17;1.70;;;9.30;99.90;;;;;;5419597;26;20239;-57
2024/04/10 07:36:11;;;;;;;4.53;1.20;;;9.40;99.90;;;;;;5456265;26;20285;-58
2024/04/10 07:38:40;;;;;;;4.97;1.43;;;9.30;99.90;;;;;;5435243;26;20227;-59
2024/04/10 07:41:06;;;;;;;7.13;1.77;;;9.30;99.90;;;;;;5398079;26;20593;-58
2024/04/10 07:43:36;;;;;;;4.37;1.10;;;9.30;99.90;;;;;;5444108;26;20235;-57
2024/04/10 07:46:06;;;;;;;4.07;1.23;;;9.30;99.90;;;;;;5459925;26;20232;-58
2024/04/10 07:48:35;;;;;;;3.87;1.70;;;9.30;99.90;;;;;;5446404;26;20231;-57
2024/04/10 07:51:05;;;;;;;5.93;1.33;;;9.40;99.90;;;;;;5436339;26;20725;-58
2024/04/10 07:53:36;;;;;;;6.37;1.47;;;9.40;99.90;;;;;;5424263;26;20230;-57
2024/04/10 07:56:03;;;;;;;5.10;1.30;;;9.40;99.90;;;;;;5395919;26;20244;-59
2024/04/10 07:58:32;;;;;;;4.23;1.33;;;9.50;99.90;;;;;;5452355;26;20273;-58
2024/04/10 08:00:59;;;;;;;8.73;2.00;;;9.60;99.90;;;;;;5434259;26;20713;-57
2024/04/10 08:03:29;;;;;;;8.20;1.70;;;9.70;99.90;;;;;;5429185;26;20228;-58
2024/04/10 08:05:56;;;;;;;7.17;2.13;;;9.80;99.90;;;;;;5435880;26;20234;-59
2024/04/10 08:08:28;;;;;;;9.00;1.40;;;9.90;99.90;;;;;;5447643;26;20905;-60
2024/04/10 08:10:59;;;;;;;6.57;1.50;;;10.10;99.90;;;;;;5436474;26;20274;-60
2024/04/10 08:13:28;;;;;;;5.77;1.77;;;10.20;99.90;;;;;;5413947;26;20243;-58
2024/04/10 08:15:54;;;;;;;7.67;2.20;;;10.40;99.90;;;;;;5449644;26;20258;-56
2024/04/10 08:18:23;;;;;;;5.80;1.80;;;10.40;99.90;;;;;;5447158;26;20274;-57
2024/04/10 08:20:57;;;;;;;9.70;1.90;;;10.50;99.90;;;;;;5432578;26;20243;-58
2024/04/10 08:23:29;;;;;;;5.13;1.43;;;10.60;99.90;;;;;;5440737;26;20265;-54
2024/04/10 08:25:55;;;;;;;5.43;1.47;;;10.70;99.90;;;;;;5431021;26;20291;-54
2024/04/10 08:28:25;;;;;;;6.60;1.83;;;10.80;99.90;;;;;;5404231;26;20384;-56
2024/04/10 08:30:51;;;;;;;5.50;1.73;;;10.90;99.90;;;;;;5448401;26;20247;-58
2024/04/10 08:33:19;;;;;;;7.77;1.80;;;10.80;99.90;;;;;;5465312;26;20316;-57
2024/04/10 08:35:52;;;;;;;9.13;2.10;;;10.70;99.90;;;;;;5427572;26;20239;-58
2024/04/10 08:38:21;;;;;;;10.13;1.97;;;10.70;99.90;;;;;;5452235;26;20314;-58
2024/04/10 08:40:51;;;;;;;8.00;1.63;;;10.70;99.90;;;;;;5435615;26;20263;-60
2024/04/10 08:43:21;;;;;;;6.67;1.70;;;10.70;99.90;;;;;;5405017;26;20243;-59
2024/04/10 08:45:47;;;;;;;8.97;1.90;;;10.70;99.90;;;;;;5456585;26;20231;-56
2024/04/10 08:48:18;;;;;;;5.50;1.30;;;10.70;99.90;;;;;;5438207;26;20296;-58
2024/04/10 08:50:45;;;;;;;10.00;1.40;;;10.70;99.90;;;;;;5432910;26;20247;-58
2024/04/10 08:53:15;;;;;;;3.20;1.33;;;10.80;99.90;;;;;;5456385;26;20932;-59
2024/04/10 08:55:42;;;;;;;8.90;1.80;;;10.80;99.90;;;;;;5457610;26;20277;-59
2024/04/10 08:58:13;;;;;;;7.40;1.60;;;10.80;99.90;;;;;;5410931;26;20243;-59
2024/04/10 09:00:42;;;;;;;9.77;1.93;;;10.90;99.90;;;;;;5449938;26;20277;-61
2024/04/10 09:03:11;;;;;;;7.83;1.70;;;10.90;99.90;;;;;;5434593;26;20368;-60
2024/04/10 09:05:37;;;;;;;5.33;1.53;;;11.00;99.90;;;;;;5427774;26;20226;-59
2024/04/10 09:08:07;;;;;;;8.13;1.83;;;11.00;99.90;;;;;;5462358;26;20291;-57
2024/04/10 09:10:33;;;;;;;6.57;1.67;;;11.10;99.90;;;;;;5454801;26;20717;-59
2024/04/10 09:13:07;;;;;;;8.60;1.57;;;11.00;99.90;;;;;;5413094;26;20251;-59
2024/04/10 09:15:37;;;;;;;7.23;1.60;;;11.00;99.90;;;;;;5459989;26;20264;-56
2024/04/10 09:18:06;;;;;;;4.13;1.40;;;11.10;99.90;;;;;;5436468;26;20609;-59
2024/04/10 09:20:32;;;;;;;7.00;1.63;;;11.30;99.90;;;;;;5457421;26;20227;-58
2024/04/10 09:23:04;;;;;;;6.77;2.20;;;11.30;99.90;;;;;;5440581;26;20236;-58
2024/04/10 09:25:31;;;;;;;5.13;2.23;;;11.40;99.90;;;;;;5458706;26;20230;-59
2024/04/10 09:28:01;;;;;;;6.83;2.30;;;11.40;99.90;;;;;;5423006;26;20619;-57
2024/04/10 09:30:27;;;;;;;7.83;1.73;;;11.40;99.90;;;;;;5451020;26;20335;-58
2024/04/10 09:32:59;;;;;;;2.50;1.17;;;11.40;99.90;;;;;;5433287;26;20427;-60
2024/04/10 09:35:26;;;;;;;7.93;1.80;;;11.50;99.90;;;;;;5455196;26;20270;-57
2024/04/10 09:37:57;;;;;;;5.93;1.47;;;11.80;99.90;;;;;;5432470;26;20272;-59
2024/04/10 09:40:24;;;;;;;5.03;1.53;;;12.00;99.90;;;;;;5457497;26;20289;-59
2024/04/10 09:43:00;;;;;;;6.67;1.50;;;12.10;99.90;;;;;;5418138;26;20239;-61
2024/04/10 09:45:27;;;;;;;5.00;1.50;;;12.10;99.90;;;;;;5446701;26;21222;-56
2024/04/10 09:47:58;;;;;;;5.53;2.23;;;12.10;99.90;;;;;;5451144;26;20235;-54
2024/04/10 09:50:29;;;;;;;5.70;1.43;;;12.10;99.90;;;;;;5442044;26;20837;-58
2024/04/10 09:53:00;;;;;;;8.20;1.80;;;12.00;99.90;;;;;;5430635;26;20289;-59
2024/04/10 09:55:26;;;;;;;5.50;1.47;;;11.80;99.90;;;;;;5455110;26;20231;-58
2024/04/10 09:57:56;;;;;;;6.20;1.50;;;11.70;99.90;;;;;;5402681;26;21648;-55
2024/04/10 10:00:22;;;;;;;6.40;1.63;;;11.60;99.90;;;;;;5443488;26;20325;-61
2024/04/10 10:02:50;;;;;;;5.17;1.23;;;11.60;99.90;;;;;;5451003;26;20269;-59
2024/04/10 10:05:22;;;;;;;5.50;1.80;;;11.60;99.90;;;;;;5453896;26;20277;-61
2024/04/10 10:07:52;;;;;;;5.77;1.30;;;11.70;99.90;;;;;;5440499;26;20243;-58
2024/04/10 10:10:18;;;;;;;9.97;2.20;;;11.70;99.90;;;;;;5464946;26;20277;-59
2024/04/10 10:12:48;;;;;;;8.43;1.70;;;11.80;99.90;;;;;;5449871;26;20231;-58
2024/04/10 10:15:21;;;;;;;4.00;1.20;;;11.90;99.90;;;;;;5412773;26;20301;-56
2024/04/10 10:17:55;;;;;;;6.47;1.40;;;11.90;99.90;;;;;;5457829;26;20974;-56
2024/04/10 10:20:24;;;;;;;7.57;1.20;;;11.90;99.90;;;;;;5464721;26;20310;-59
2024/04/10 10:23:00;;;;;;;5.60;1.10;;;12.00;99.90;;;;;;5429726;26;20307;-57
2024/04/10 10:25:27;;;;;;;4.90;1.20;;;12.10;99.90;;;;;;5423839;26;20352;-56
2024/04/10 10:28:05;;;;;;;4.27;1.10;;;12.30;99.90;;;;;;5453986;26;20222;-59
2024/04/10 10:30:31;;;;;;;11.33;1.80;;;12.50;99.90;;;;;;5410588;26;20633;-59
2024/04/10 10:33:04;;;;;;;4.23;1.47;;;12.60;99.90;;;;;;5453969;26;20240;-60
2024/04/10 10:35:33;;;;;;;4.50;1.13;;;12.70;99.90;;;;;;5453082;26;20269;-58
2024/04/10 10:38:04;;;;;;;4.47;1.03;;;12.70;99.90;;;;;;5444675;26;20701;-57
2024/04/10 10:40:31;;;;;;;7.27;1.50;;;12.80;99.90;;;;;;5453438;26;20686;-59
2024/04/10 10:43:05;;;;;;;7.63;1.17;;;12.80;99.90;;;;;;5456193;26;20227;-59
2024/04/10 10:45:34;;;;;;;5.43;1.30;;;12.90;99.90;;;;;;5401876;26;20290;-55
2024/04/10 10:48:03;;;;;;;3.17;1.43;;;12.90;99.90;;;;;;5454868;26;20231;-59
2024/04/10 10:50:32;;;;;;;4.73;1.40;;;12.90;99.90;;;;;;5464690;26;20741;-55
2024/04/10 10:53:02;;;;;;;8.83;1.73;;;12.90;99.90;;;;;;5419427;26;20248;-54
2024/04/10 10:55:28;;;;;;;6.03;2.27;;;13.00;99.90;;;;;;5436275;26;20330;-58
2024/04/10 10:58:03;;;;;;;4.03;1.60;;;12.90;99.90;;;;;;5460929;26;20230;-53
2024/04/10 11:00:30;;;;;;;5.03;1.23;;;12.80;99.90;;;;;;5432852;26;20238;-57
2024/04/10 11:03:05;;;;;;;10.20;1.30;;;12.80;99.90;;;;;;5451961;26;20247;-59
2024/04/10 11:05:34;;;;;;;7.00;1.43;;;12.80;99.90;;;;;;5461934;26;20265;-59
2024/04/10 11:08:03;;;;;;;7.70;1.60;;;12.70;99.90;;;;;;5433684;26;20243;-58
2024/04/10 11:12:04;;;;;;;8.40;1.60;;;12.80;99.90;;;;;;5509720;25;21019;-58
2024/04/10 11:14:30;;;;;;;7.87;1.47;;;13.10;99.90;;;;;;5486043;25;20857;-57
2024/04/10 11:17:01;;;;;;;4.67;1.30;;;13.20;99.90;;;;;;5449157;25;20269;-59
2024/04/10 11:19:27;;;;;;;4.97;1.50;;;13.10;99.90;;;;;;5494624;25;20301;-58
2024/04/10 11:21:55;;;;;;;4.43;1.53;;;12.80;99.90;;;;;;5466832;26;20226;-58
2024/04/10 11:24:21;;;;;;;6.43;1.67;;;12.80;99.90;;;;;;5436774;26;20599;-58
2024/04/10 11:26:50;;;;;;;5.80;1.53;;;12.70;99.90;;;;;;5475048;26;20257;-58
2024/04/10 11:29:18;;;;;;;3.43;1.33;;;12.60;99.90;;;;;;5475428;26;20234;-57
2024/04/10 11:31:47;;;;;;;7.80;1.80;;;12.80;99.90;;;;;;5412767;26;20243;-57
2024/04/10 11:34:13;;;;;;;6.80;1.73;;;12.80;99.90;;;;;;5467493;25;20234;-57
2024/04/10 11:36:42;;;;;;;4.53;1.13;;;12.80;99.90;;;;;;5451777;26;20238;-58
2024/04/10 11:42:00;;;;;;;5.20;1.50;;;12.80;99.90;;;;;;5471748;26;21211;-57
2024/04/10 11:44:29;;;;;;;5.87;1.70;;;12.70;99.90;;;;;;5472369;26;20286;-57
2024/04/10 11:47:00;;;;;;;5.23;1.63;;;12.70;99.90;;;;;;5468752;26;20232;-58
2024/04/10 11:49:29;;;;;;;4.90;1.53;;;12.60;99.90;;;;;;5404146;26;20841;-57
2024/04/10 11:51:58;;;;;;;4.17;1.70;;;12.70;99.90;;;;;;5444785;26;20234;-57
2024/04/10 11:54:24;;;;;;;6.53;1.73;;;12.80;99.90;;;;;;5441514;26;20294;-57
2024/04/10 11:56:57;;;;;;;6.20;1.63;;;12.80;99.90;;;;;;5458734;26;20269;-57
2024/04/10 11:59:26;;;;;;;5.43;1.90;;;12.80;99.90;;;;;;5473842;26;20238;-58
2024/04/10 12:01:57;;;;;;;14.83;2.40;;;12.80;99.90;;;;;;5460732;26;20232;-57
2024/04/10 12:04:26;;;;;;;7.07;1.70;;;12.90;99.90;;;;;;5413268;25;20281;-58
2024/04/10 12:06:56;;;;;;;6.70;1.83;;;13.00;99.90;;;;;;5465744;26;20234;-57
2024/04/10 12:09:25;;;;;;;7.03;1.50;;;12.90;99.90;;;;;;5446879;26;20240;-57
2024/04/10 12:12:03;;;;;;;3.20;1.47;;;13.00;99.90;;;;;;5439800;26;20244;-58
2024/04/10 12:14:29;;;;;;;6.13;2.20;;;13.10;99.90;;;;;;5476569;26;20238;-56
2024/04/10 12:17:04;;;;;;;3.47;1.37;;;13.20;99.90;;;;;;5435731;26;20235;-57
2024/04/10 12:19:30;;;;;;;2.10;1.47;;;13.20;99.90;;;;;;5417742;25;20251;-57
2024/04/10 12:21:59;;;;;;;4.67;1.33;;;13.00;99.90;;;;;;5457227;26;20275;-57
2024/04/10 12:24:29;;;;;;;3.13;1.63;;;13.00;99.90;;;;;;5452369;26;20227;-57
2024/04/10 12:27:04;;;;;;;5.27;1.60;;;13.10;99.90;;;;;;5428932;26;20239;-58
2024/04/10 12:29:30;;;;;;;5.37;1.60;;;13.20;99.90;;;;;;5434539;26;20284;-56
2024/04/10 12:32:01;;;;;;;6.47;1.70;;;13.40;99.90;;;;;;5424596;26;20231;-58
2024/04/10 12:34:32;;;;;;;5.13;1.80;;;13.50;99.90;;;;;;5409120;26;20239;-57
2024/04/10 12:39:51;;;;;;;3.70;1.67;;;13.80;99.90;;;;;;5467838;26;20243;-57
2024/04/10 12:42:22;;;;;;;5.67;1.60;;;13.90;99.90;;;;;;5439859;26;20227;-57
2024/04/10 12:44:57;;;;;;;6.53;1.13;;;13.90;99.90;;;;;;5436486;26;20231;-58
2024/04/10 12:47:26;;;;;;;2.57;1.10;;;13.90;99.90;;;;;;5401567;26;20227;-58
2024/04/10 12:49:58;;;;;;;5.87;1.50;;;13.90;99.90;;;;;;5415966;26;20235;-58
2024/04/10 12:52:24;;;;;;;4.70;2.03;;;13.90;99.90;;;;;;5415040;26;20355;-57
2024/04/10 12:54:59;;;;;;;5.10;1.60;;;13.80;99.90;;;;;;5428920;26;20348;-57
2024/04/10 12:57:33;;;;;;;8.93;1.63;;;13.80;99.90;;;;;;5425036;26;20273;-57
2024/04/10 13:00:06;;;;;;;3.93;1.60;;;13.80;99.90;;;;;;5438555;26;20231;-57
2024/04/10 13:02:38;;;;;;;3.17;2.00;;;13.60;99.90;;;;;;5444176;26;20800;-58
2024/04/10 13:05:09;;;;;;;5.17;1.57;;;13.60;99.90;;;;;;5380787;26;23585;-58
2024/04/10 13:07:51;;;;;;;4.33;1.80;;;13.50;99.90;;;;;;5450120;26;20314;-57